sensor_id;sensor_type;location;lat;lon;timestamp;pressure;altitude;pressure_sealevel;temperature
43802;BMP280;29429;51.074;13.764;2022-12-20T00:01:32;100639.06;;;2.29
43802;BMP280;29429;51.074;13.764;2022-12-20T00:04:04;100640.75;;;2.30
43802;BMP280;29429;51.074;13.764;2022-12-20T00:06:34;100643.94;;;2.33
43802;BMP280;29429;51.074;13.764;2022-12-20T00:09:05;100643.94;;;2.33
43802;BMP280;29429;51.074;13.764;2022-12-20T00:11:33;100640.75;;;2.30
43802;BMP280;29429;51.074;13.764;2022-12-20T00:14:00;100635.34;;;2.31
43802;BMP280;29429;51.074;13.764;2022-12-20T00:16:28;100631.63;;;2.34
43802;BMP280;29429;51.074;13.764;2022-12-20T00:19:02;100611.66;;;2.31
43802;BMP280;29429;51.074;13.764;2022-12-20T00:21:32;100614.31;;;2.31
43802;BMP280;29429;51.074;13.764;2022-12-20T00:23:59;100595.19;;;2.29
43802;BMP280;29429;51.074;13.764;2022-12-20T00:26:30;100588.25;;;2.28
43802;BMP280;29429;51.074;13.764;2022-12-20T00:28:58;100591.72;;;2.29
43802;BMP280;29429;51.074;13.764;2022-12-20T00:31:29;100595.63;;;2.34
43802;BMP280;29429;51.074;13.764;2022-12-20T00:33:58;100618.59;;;2.32
43802;BMP280;29429;51.074;13.764;2022-12-20T00:36:29;100605.31;;;2.34
43802;BMP280;29429;51.074;13.764;2022-12-20T00:38:59;100597.31;;;2.35
43802;BMP280;29429;51.074;13.764;2022-12-20T00:41:30;100600.38;;;2.40
43802;BMP280;29429;51.074;13.764;2022-12-20T00:43:57;100606.44;;;2.41
43802;BMP280;29429;51.074;13.764;2022-12-20T00:46:26;100593.44;;;2.39
43802;BMP280;29429;51.074;13.764;2022-12-20T00:48:54;100600.75;;;2.36
43802;BMP280;29429;51.074;13.764;2022-12-20T00:51:26;100596.75;;;2.41
43802;BMP280;29429;51.074;13.764;2022-12-20T00:53:54;100589.84;;;2.40
43802;BMP280;29429;51.074;13.764;2022-12-20T00:56:22;100596.50;;;2.44
43802;BMP280;29429;51.074;13.764;2022-12-20T00:58:51;100587.66;;;2.45
43802;BMP280;29429;51.074;13.764;2022-12-20T01:01:26;100584.03;;;2.46
43802;BMP280;29429;51.074;13.764;2022-12-20T01:03:53;100588.59;;;2.44
43802;BMP280;29429;51.074;13.764;2022-12-20T01:06:22;100576.56;;;2.52
43802;BMP280;29429;51.074;13.764;2022-12-20T01:08:51;100579.78;;;2.55
43802;BMP280;29429;51.074;13.764;2022-12-20T01:11:26;100573.84;;;2.63
43802;BMP280;29429;51.074;13.764;2022-12-20T01:13:56;100564.56;;;2.68
43802;BMP280;29429;51.074;13.764;2022-12-20T01:16:36;100548.53;;;2.81
43802;BMP280;29429;51.074;13.764;2022-12-20T01:19:04;100548.41;;;2.82
43802;BMP280;29429;51.074;13.764;2022-12-20T01:21:31;100558.94;;;2.92
43802;BMP280;29429;51.074;13.764;2022-12-20T01:23:58;100555.34;;;2.93
43802;BMP280;29429;51.074;13.764;2022-12-20T01:26:28;100556.03;;;2.95
43802;BMP280;29429;51.074;13.764;2022-12-20T01:28:58;100552.72;;;3.02
43802;BMP280;29429;51.074;13.764;2022-12-20T01:31:28;100547.06;;;3.07
43802;BMP280;29429;51.074;13.764;2022-12-20T01:33:55;100564.53;;;3.08
43802;BMP280;29429;51.074;13.764;2022-12-20T01:36:30;100578.13;;;3.13
43802;BMP280;29429;51.074;13.764;2022-12-20T01:39:12;100545.53;;;3.14
43802;BMP280;29429;51.074;13.764;2022-12-20T01:41:41;100545.66;;;3.13
43802;BMP280;29429;51.074;13.764;2022-12-20T01:46:47;100572.31;;;3.19
43802;BMP280;29429;51.074;13.764;2022-12-20T01:49:32;100552.91;;;3.20
43802;BMP280;29429;51.074;13.764;2022-12-20T01:52:05;100551.50;;;3.16
43802;BMP280;29429;51.074;13.764;2022-12-20T01:54:40;100567.88;;;3.20
43802;BMP280;29429;51.074;13.764;2022-12-20T01:58:09;100549.28;;;3.12
43802;BMP280;29429;51.074;13.764;2022-12-20T02:00:37;100550.66;;;3.06
43802;BMP280;29429;51.074;13.764;2022-12-20T02:03:09;100551.34;;;3.08
43802;BMP280;29429;51.074;13.764;2022-12-20T02:05:41;100557.59;;;3.17
43802;BMP280;29429;51.074;13.764;2022-12-20T02:08:11;100556.50;;;3.19
43802;BMP280;29429;51.074;13.764;2022-12-20T02:13:38;100560.25;;;3.26
43802;BMP280;29429;51.074;13.764;2022-12-20T02:16:21;100547.91;;;3.27
43802;BMP280;29429;51.074;13.764;2022-12-20T02:19:04;100551.78;;;3.32
43802;BMP280;29429;51.074;13.764;2022-12-20T02:22:43;100547.19;;;3.34
43802;BMP280;29429;51.074;13.764;2022-12-20T02:27:51;100547.78;;;3.38
43802;BMP280;29429;51.074;13.764;2022-12-20T02:30:22;100563.44;;;3.39
43802;BMP280;29429;51.074;13.764;2022-12-20T02:33:06;100560.78;;;3.39
43802;BMP280;29429;51.074;13.764;2022-12-20T02:35:38;100558.16;;;3.39
43802;BMP280;29429;51.074;13.764;2022-12-20T02:38:29;100561.34;;;3.43
43802;BMP280;29429;51.074;13.764;2022-12-20T02:41:14;100571.22;;;3.41
43802;BMP280;29429;51.074;13.764;2022-12-20T02:43:48;100550.13;;;3.41
43802;BMP280;29429;51.074;13.764;2022-12-20T02:46:37;100552.88;;;3.39
43802;BMP280;29429;51.074;13.764;2022-12-20T02:49:13;100553.03;;;3.38
43802;BMP280;29429;51.074;13.764;2022-12-20T02:51:44;100550.53;;;3.36
43802;BMP280;29429;51.074;13.764;2022-12-20T02:54:14;100548.59;;;3.38
43802;BMP280;29429;51.074;13.764;2022-12-20T02:56:54;100540.56;;;3.30
43802;BMP280;29429;51.074;13.764;2022-12-20T02:59:29;100542.91;;;3.33
43802;BMP280;29429;51.074;13.764;2022-12-20T03:01:58;100530.13;;;3.29
43802;BMP280;29429;51.074;13.764;2022-12-20T03:04:29;100538.75;;;3.21
43802;BMP280;29429;51.074;13.764;2022-12-20T03:09:32;100524.19;;;3.17
43802;BMP280;29429;51.074;13.764;2022-12-20T03:12:00;100525.44;;;3.23
43802;BMP280;29429;51.074;13.764;2022-12-20T03:14:29;100528.47;;;3.18
43802;BMP280;29429;51.074;13.764;2022-12-20T03:16:58;100521.66;;;3.16
43802;BMP280;29429;51.074;13.764;2022-12-20T03:19:25;100518.75;;;3.19
43802;BMP280;29429;51.074;13.764;2022-12-20T03:21:53;100512.94;;;3.25
43802;BMP280;29429;51.074;13.764;2022-12-20T03:24:20;100508.53;;;3.25
43802;BMP280;29429;51.074;13.764;2022-12-20T03:26:48;100509.88;;;3.29
43802;BMP280;29429;51.074;13.764;2022-12-20T03:29:18;100513.22;;;3.31
43802;BMP280;29429;51.074;13.764;2022-12-20T03:31:45;100511.56;;;3.30
43802;BMP280;29429;51.074;13.764;2022-12-20T03:34:12;100508.34;;;3.36
43802;BMP280;29429;51.074;13.764;2022-12-20T03:36:39;100509.91;;;3.39
43802;BMP280;29429;51.074;13.764;2022-12-20T03:39:06;100512.81;;;3.36
43802;BMP280;29429;51.074;13.764;2022-12-20T03:41:37;100508.06;;;3.39
43802;BMP280;29429;51.074;13.764;2022-12-20T03:44:05;100514.88;;;3.51
43802;BMP280;29429;51.074;13.764;2022-12-20T03:46:32;100511.25;;;3.52
43802;BMP280;29429;51.074;13.764;2022-12-20T03:48:59;100506.13;;;3.51
43802;BMP280;29429;51.074;13.764;2022-12-20T03:51:28;100498.91;;;3.53
43802;BMP280;29429;51.074;13.764;2022-12-20T03:53:55;100509.72;;;3.59
43802;BMP280;29429;51.074;13.764;2022-12-20T03:56:33;100505.97;;;3.52
43802;BMP280;29429;51.074;13.764;2022-12-20T03:59:02;100520.00;;;3.53
43802;BMP280;29429;51.074;13.764;2022-12-20T04:01:30;100512.78;;;3.55
43802;BMP280;29429;51.074;13.764;2022-12-20T04:03:57;100508.50;;;3.54
43802;BMP280;29429;51.074;13.764;2022-12-20T04:06:26;100499.75;;;3.53
43802;BMP280;29429;51.074;13.764;2022-12-20T04:08:53;100502.66;;;3.50
43802;BMP280;29429;51.074;13.764;2022-12-20T04:11:25;100503.34;;;3.52
43802;BMP280;29429;51.074;13.764;2022-12-20T04:14:04;100504.34;;;3.51
43802;BMP280;29429;51.074;13.764;2022-12-20T04:16:33;100500.69;;;3.52
43802;BMP280;29429;51.074;13.764;2022-12-20T04:19:01;100499.03;;;3.61
43802;BMP280;29429;51.074;13.764;2022-12-20T04:21:34;100501.81;;;3.59
43802;BMP280;29429;51.074;13.764;2022-12-20T04:24:04;100499.47;;;3.56
43802;BMP280;29429;51.074;13.764;2022-12-20T04:26:45;100496.28;;;3.62
43802;BMP280;29429;51.074;13.764;2022-12-20T04:29:12;100494.88;;;3.58
43802;BMP280;29429;51.074;13.764;2022-12-20T04:31:41;100497.38;;;3.60
43802;BMP280;29429;51.074;13.764;2022-12-20T04:34:08;100503.34;;;3.62
43802;BMP280;29429;51.074;13.764;2022-12-20T04:36:36;100487.09;;;3.66
43802;BMP280;29429;51.074;13.764;2022-12-20T04:39:06;100490.28;;;3.70
43802;BMP280;29429;51.074;13.764;2022-12-20T04:41:43;100477.78;;;3.72
43802;BMP280;29429;51.074;13.764;2022-12-20T04:44:12;100487.66;;;3.70
43802;BMP280;29429;51.074;13.764;2022-12-20T04:46:39;100494.03;;;3.67
43802;BMP280;29429;51.074;13.764;2022-12-20T04:49:10;100492.34;;;3.66
43802;BMP280;29429;51.074;13.764;2022-12-20T04:51:42;100494.44;;;3.63
43802;BMP280;29429;51.074;13.764;2022-12-20T04:54:11;100480.28;;;3.64
43802;BMP280;29429;51.074;13.764;2022-12-20T04:56:43;100489.16;;;3.63
43802;BMP280;29429;51.074;13.764;2022-12-20T04:59:16;100498.91;;;3.62
43802;BMP280;29429;51.074;13.764;2022-12-20T05:01:46;100497.06;;;3.63
43802;BMP280;29429;51.074;13.764;2022-12-20T05:04:24;100488.19;;;3.64
43802;BMP280;29429;51.074;13.764;2022-12-20T05:06:57;100481.97;;;3.65
43802;BMP280;29429;51.074;13.764;2022-12-20T05:09:24;100485.72;;;3.62
43802;BMP280;29429;51.074;13.764;2022-12-20T05:11:54;100477.38;;;3.67
43802;BMP280;29429;51.074;13.764;2022-12-20T05:14:21;100468.78;;;3.65
43802;BMP280;29429;51.074;13.764;2022-12-20T05:16:49;100474.06;;;3.65
43802;BMP280;29429;51.074;13.764;2022-12-20T05:19:16;100464.75;;;3.71
43802;BMP280;29429;51.074;13.764;2022-12-20T05:21:43;100468.06;;;3.73
43802;BMP280;29429;51.074;13.764;2022-12-20T05:24:30;100475.41;;;3.69
43802;BMP280;29429;51.074;13.764;2022-12-20T05:27:42;100468.78;;;3.65
43802;BMP280;29429;51.074;13.764;2022-12-20T05:30:10;100464.03;;;3.68
43802;BMP280;29429;51.074;13.764;2022-12-20T05:32:38;100459.47;;;3.71
43802;BMP280;29429;51.074;13.764;2022-12-20T05:35:05;100467.38;;;3.71
43802;BMP280;29429;51.074;13.764;2022-12-20T05:37:33;100466.09;;;3.75
43802;BMP280;29429;51.074;13.764;2022-12-20T05:40:08;100456.13;;;3.68
43802;BMP280;29429;51.074;13.764;2022-12-20T05:42:36;100445.84;;;3.65
43802;BMP280;29429;51.074;13.764;2022-12-20T05:45:04;100446.28;;;3.71
43802;BMP280;29429;51.074;13.764;2022-12-20T05:47:41;100445.16;;;3.73
43802;BMP280;29429;51.074;13.764;2022-12-20T05:50:10;100444.03;;;3.76
43802;BMP280;29429;51.074;13.764;2022-12-20T05:53:04;100446.53;;;3.77
43802;BMP280;29429;51.074;13.764;2022-12-20T05:55:51;100453.03;;;3.83
43802;BMP280;29429;51.074;13.764;2022-12-20T05:58:19;100449.44;;;3.84
43802;BMP280;29429;51.074;13.764;2022-12-20T06:00:54;100446.47;;;3.87
43802;BMP280;29429;51.074;13.764;2022-12-20T06:03:23;100446.47;;;3.87
43802;BMP280;29429;51.074;13.764;2022-12-20T06:05:51;100447.59;;;3.94
43802;BMP280;29429;51.074;13.764;2022-12-20T06:08:24;100448.09;;;3.97
43802;BMP280;29429;51.074;13.764;2022-12-20T06:10:53;100444.22;;;4.01
43802;BMP280;29429;51.074;13.764;2022-12-20T06:13:21;100447.81;;;4.00
43802;BMP280;29429;51.074;13.764;2022-12-20T06:15:51;100440.78;;;3.91
43802;BMP280;29429;51.074;13.764;2022-12-20T06:18:20;100444.78;;;3.95
43802;BMP280;29429;51.074;13.764;2022-12-20T06:20:52;100445.22;;;3.91
43802;BMP280;29429;51.074;13.764;2022-12-20T06:23:22;100445.91;;;3.93
43802;BMP280;29429;51.074;13.764;2022-12-20T06:26:10;100440.34;;;3.96
43802;BMP280;29429;51.074;13.764;2022-12-20T06:28:45;100441.63;;;3.92
43802;BMP280;29429;51.074;13.764;2022-12-20T06:31:13;100437.31;;;3.91
43802;BMP280;29429;51.074;13.764;2022-12-20T06:33:50;100443.28;;;3.93
43802;BMP280;29429;51.074;13.764;2022-12-20T06:36:19;100441.31;;;3.95
43802;BMP280;29429;51.074;13.764;2022-12-20T06:38:47;100438.66;;;3.95
43802;BMP280;29429;51.074;13.764;2022-12-20T06:41:14;100445.06;;;3.92
43802;BMP280;29429;51.074;13.764;2022-12-20T06:43:41;100453.97;;;3.91
43802;BMP280;29429;51.074;13.764;2022-12-20T06:46:11;100442.59;;;3.91
43802;BMP280;29429;51.074;13.764;2022-12-20T06:48:39;100447.59;;;3.94
43802;BMP280;29429;51.074;13.764;2022-12-20T06:51:11;100438.16;;;3.91
43802;BMP280;29429;51.074;13.764;2022-12-20T06:53:43;100457.13;;;3.95
43802;BMP280;29429;51.074;13.764;2022-12-20T06:56:13;100464.09;;;3.96
43802;BMP280;29429;51.074;13.764;2022-12-20T06:59:05;100461.91;;;3.91
43802;BMP280;29429;51.074;13.764;2022-12-20T07:01:32;100478.00;;;3.88
43802;BMP280;29429;51.074;13.764;2022-12-20T07:03:59;100482.16;;;3.91
43802;BMP280;29429;51.074;13.764;2022-12-20T07:06:26;100473.28;;;3.92
43802;BMP280;29429;51.074;13.764;2022-12-20T07:08:55;100472.06;;;3.86
43802;BMP280;29429;51.074;13.764;2022-12-20T07:11:22;100462.31;;;3.87
43802;BMP280;29429;51.074;13.764;2022-12-20T07:13:55;100466.78;;;3.86
43802;BMP280;29429;51.074;13.764;2022-12-20T07:16:23;100458.97;;;3.94
43802;BMP280;29429;51.074;13.764;2022-12-20T07:18:52;100468.09;;;4.00
43802;BMP280;29429;51.074;13.764;2022-12-20T07:21:20;100460.88;;;4.02
43802;BMP280;29429;51.074;13.764;2022-12-20T07:23:47;100454.47;;;4.04
43802;BMP280;29429;51.074;13.764;2022-12-20T07:26:14;100435.00;;;4.15
43802;BMP280;29429;51.074;13.764;2022-12-20T07:28:41;100435.75;;;4.25
43802;BMP280;29429;51.074;13.764;2022-12-20T07:31:09;100432.44;;;4.23
43802;BMP280;29429;51.074;13.764;2022-12-20T07:33:36;100432.72;;;4.20
43802;BMP280;29429;51.074;13.764;2022-12-20T07:36:09;100435.66;;;4.17
43802;BMP280;29429;51.074;13.764;2022-12-20T07:38:36;100422.81;;;4.04
43802;BMP280;29429;51.074;13.764;2022-12-20T07:41:14;100432.81;;;4.01
43802;BMP280;29429;51.074;13.764;2022-12-20T07:43:41;100430.19;;;4.01
43802;BMP280;29429;51.074;13.764;2022-12-20T07:46:14;100426.81;;;4.08
43802;BMP280;29429;51.074;13.764;2022-12-20T07:48:44;100440.41;;;4.13
43802;BMP280;29429;51.074;13.764;2022-12-20T07:51:27;100444.16;;;4.11
43802;BMP280;29429;51.074;13.764;2022-12-20T07:54:13;100453.31;;;4.16
43802;BMP280;29429;51.074;13.764;2022-12-20T07:56:47;100453.84;;;4.20
43802;BMP280;29429;51.074;13.764;2022-12-20T07:59:21;100466.75;;;4.23
43802;BMP280;29429;51.074;13.764;2022-12-20T08:01:50;100457.16;;;4.22
43802;BMP280;29429;51.074;13.764;2022-12-20T08:04:23;100457.84;;;4.24
43802;BMP280;29429;51.074;13.764;2022-12-20T08:06:53;100455.50;;;4.21
43802;BMP280;29429;51.074;13.764;2022-12-20T08:09:47;100464.69;;;4.17
43802;BMP280;29429;51.074;13.764;2022-12-20T08:12:19;100465.81;;;4.14
43802;BMP280;29429;51.074;13.764;2022-12-20T08:15:01;100464.97;;;4.14
43802;BMP280;29429;51.074;13.764;2022-12-20T08:17:28;100454.44;;;4.14
43802;BMP280;29429;51.074;13.764;2022-12-20T08:19:55;100456.63;;;4.18
43802;BMP280;29429;51.074;13.764;2022-12-20T08:22:23;100444.94;;;4.21
43802;BMP280;29429;51.074;13.764;2022-12-20T08:24:50;100440.66;;;4.20
43802;BMP280;29429;51.074;13.764;2022-12-20T08:27:17;100453.13;;;4.27
43802;BMP280;29429;51.074;13.764;2022-12-20T08:29:44;100446.31;;;4.25
43802;BMP280;29429;51.074;13.764;2022-12-20T08:32:11;100434.09;;;4.24
43802;BMP280;29429;51.074;13.764;2022-12-20T08:34:39;100444.66;;;4.24
43802;BMP280;29429;51.074;13.764;2022-12-20T08:37:06;100455.19;;;4.24
43802;BMP280;29429;51.074;13.764;2022-12-20T08:39:40;100449.81;;;4.16
43802;BMP280;29429;51.074;13.764;2022-12-20T08:42:07;100448.56;;;4.20
43802;BMP280;29429;51.074;13.764;2022-12-20T08:44:38;100449.81;;;4.16
43802;BMP280;29429;51.074;13.764;2022-12-20T08:47:06;100456.09;;;4.15
43802;BMP280;29429;51.074;13.764;2022-12-20T08:49:33;100448.91;;;4.07
43802;BMP280;29429;51.074;13.764;2022-12-20T08:52:01;100448.09;;;4.07
43802;BMP280;29429;51.074;13.764;2022-12-20T08:54:28;100442.13;;;4.05
43802;BMP280;29429;51.074;13.764;2022-12-20T08:56:55;100460.28;;;4.08
43802;BMP280;29429;51.074;13.764;2022-12-20T08:59:25;100461.56;;;4.04
43802;BMP280;29429;51.074;13.764;2022-12-20T09:01:52;100458.91;;;4.04
43802;BMP280;29429;51.074;13.764;2022-12-20T09:04:21;100448.38;;;4.04
43802;BMP280;29429;51.074;13.764;2022-12-20T09:06:54;100451.69;;;4.06
43802;BMP280;29429;51.074;13.764;2022-12-20T09:09:22;100448.22;;;4.05
43802;BMP280;29429;51.074;13.764;2022-12-20T09:11:49;100453.47;;;4.15
43802;BMP280;29429;51.074;13.764;2022-12-20T09:14:28;100456.88;;;4.25
43802;BMP280;29429;51.074;13.764;2022-12-20T09:16:56;100453.78;;;4.29
43802;BMP280;29429;51.074;13.764;2022-12-20T09:19:23;100454.19;;;4.35
43802;BMP280;29429;51.074;13.764;2022-12-20T09:21:50;100459.03;;;4.39
43802;BMP280;29429;51.074;13.764;2022-12-20T09:24:17;100452.63;;;4.42
43802;BMP280;29429;51.074;13.764;2022-12-20T09:26:45;100451.78;;;4.41
43802;BMP280;29429;51.074;13.764;2022-12-20T09:29:16;100455.09;;;4.43
43802;BMP280;29429;51.074;13.764;2022-12-20T09:31:52;100455.09;;;4.43
43802;BMP280;29429;51.074;13.764;2022-12-20T09:34:19;100462.91;;;4.45
43802;BMP280;29429;51.074;13.764;2022-12-20T09:36:46;100459.66;;;4.51
43802;BMP280;29429;51.074;13.764;2022-12-20T09:39:13;100448.34;;;4.58
43802;BMP280;29429;51.074;13.764;2022-12-20T09:41:42;100446.22;;;4.62
43802;BMP280;29429;51.074;13.764;2022-12-20T09:44:23;100462.25;;;4.60
43802;BMP280;29429;51.074;13.764;2022-12-20T09:47:20;100457.34;;;4.65
43802;BMP280;29429;51.074;13.764;2022-12-20T09:49:54;100461.88;;;4.73
43802;BMP280;29429;51.074;13.764;2022-12-20T09:52:42;100459.16;;;4.82
43802;BMP280;29429;51.074;13.764;2022-12-20T10:00:49;100456.97;;;4.96
43802;BMP280;29429;51.074;13.764;2022-12-20T10:03:49;100454.34;;;5.13
43802;BMP280;29429;51.074;13.764;2022-12-20T10:09:12;100469.78;;;5.43
43802;BMP280;29429;51.074;13.764;2022-12-20T10:14:56;100478.00;;;5.58
43802;BMP280;29429;51.074;13.764;2022-12-20T10:23:51;100446.97;;;5.42
43802;BMP280;29429;51.074;13.764;2022-12-20T10:26:23;100443.25;;;5.35
43802;BMP280;29429;51.074;13.764;2022-12-20T10:28:50;100439.41;;;5.30
43802;BMP280;29429;51.074;13.764;2022-12-20T10:31:21;100446.91;;;5.34
43802;BMP280;29429;51.074;13.764;2022-12-20T10:33:48;100435.56;;;5.24
43802;BMP280;29429;51.074;13.764;2022-12-20T10:36:32;100443.19;;;5.27
43802;BMP280;29429;51.074;13.764;2022-12-20T10:39:06;100445.56;;;5.13
43802;BMP280;29429;51.074;13.764;2022-12-20T10:44:27;100433.69;;;5.17
43802;BMP280;29429;51.074;13.764;2022-12-20T10:47:00;100433.19;;;5.13
43802;BMP280;29429;51.074;13.764;2022-12-20T10:49:39;100420.72;;;5.06
43802;BMP280;29429;51.074;13.764;2022-12-20T10:52:41;100395.22;;;4.97
43802;BMP280;29429;51.074;13.764;2022-12-20T10:55:43;100403.50;;;5.02
43802;BMP280;29429;51.074;13.764;2022-12-20T10:59:00;100403.44;;;4.93
43802;BMP280;29429;51.074;13.764;2022-12-20T11:01:38;100393.41;;;4.79
43802;BMP280;29429;51.074;13.764;2022-12-20T11:04:32;100407.38;;;4.72
43802;BMP280;29429;51.074;13.764;2022-12-20T11:07:32;100409.78;;;4.83
43802;BMP280;29429;51.074;13.764;2022-12-20T11:10:32;100392.72;;;4.77
43802;BMP280;29429;51.074;13.764;2022-12-20T11:13:23;100375.53;;;4.73
43802;BMP280;29429;51.074;13.764;2022-12-20T11:16:03;100376.03;;;4.77
43802;BMP280;29429;51.074;13.764;2022-12-20T11:19:32;100381.03;;;4.80
43802;BMP280;29429;51.074;13.764;2022-12-20T11:35:10;100357.06;;;4.99
43802;BMP280;29429;51.074;13.764;2022-12-20T11:38:13;100351.53;;;5.10
43802;BMP280;29429;51.074;13.764;2022-12-20T11:44:01;100346.13;;;4.94
43802;BMP280;29429;51.074;13.764;2022-12-20T11:50:06;100332.78;;;4.78
43802;BMP280;29429;51.074;13.764;2022-12-20T11:52:53;100326.97;;;4.74
43802;BMP280;29429;51.074;13.764;2022-12-20T11:55:32;100344.03;;;4.80
43802;BMP280;29429;51.074;13.764;2022-12-20T11:58:14;100350.53;;;4.85
43802;BMP280;29429;51.074;13.764;2022-12-20T12:01:25;100343.56;;;4.84
43802;BMP280;29429;51.074;13.764;2022-12-20T12:04:21;100340.84;;;4.94
43802;BMP280;29429;51.074;13.764;2022-12-20T12:07:02;100337.59;;;5.00
43802;BMP280;29429;51.074;13.764;2022-12-20T12:09:55;100325.66;;;4.96
43802;BMP280;29429;51.074;13.764;2022-12-20T12:18:23;100303.84;;;4.94
43802;BMP280;29429;51.074;13.764;2022-12-20T12:26:40;100285.94;;;4.62
43802;BMP280;29429;51.074;13.764;2022-12-20T12:29:19;100281.56;;;4.53
43802;BMP280;29429;51.074;13.764;2022-12-20T12:31:54;100290.22;;;4.63
43802;BMP280;29429;51.074;13.764;2022-12-20T12:35:01;100265.66;;;4.63
43802;BMP280;29429;51.074;13.764;2022-12-20T12:46:58;100266.13;;;4.41
43802;BMP280;29429;51.074;13.764;2022-12-20T12:49:29;100266.66;;;4.44
43802;BMP280;29429;51.074;13.764;2022-12-20T12:52:04;100284.16;;;4.45
43802;BMP280;29429;51.074;13.764;2022-12-20T12:54:39;100251.66;;;4.45
43802;BMP280;29429;51.074;13.764;2022-12-20T12:57:12;100258.44;;;4.47
43802;BMP280;29429;51.074;13.764;2022-12-20T12:59:50;100265.66;;;4.45
43802;BMP280;29429;51.074;13.764;2022-12-20T13:13:34;100253.47;;;4.44
43802;BMP280;29429;51.074;13.764;2022-12-20T13:16:34;100245.00;;;4.41
43802;BMP280;29429;51.074;13.764;2022-12-20T13:19:55;100218.75;;;4.39
43802;BMP280;29429;51.074;13.764;2022-12-20T13:23:40;100242.19;;;4.42
43802;BMP280;29429;51.074;13.764;2022-12-20T13:27:17;100214.69;;;4.27
43802;BMP280;29429;51.074;13.764;2022-12-20T13:36:38;100219.75;;;4.38
43802;BMP280;29429;51.074;13.764;2022-12-20T13:39:36;100200.22;;;4.31
43802;BMP280;29429;51.074;13.764;2022-12-20T13:42:41;100188.84;;;4.30
43802;BMP280;29429;51.074;13.764;2022-12-20T13:45:27;100211.75;;;4.30
43802;BMP280;29429;51.074;13.764;2022-12-20T13:49:01;100205.63;;;4.29
43802;BMP280;29429;51.074;13.764;2022-12-20T13:51:30;100203.47;;;4.25
43802;BMP280;29429;51.074;13.764;2022-12-20T13:54:05;100194.03;;;4.22
43802;BMP280;29429;51.074;13.764;2022-12-20T13:56:48;100197.16;;;4.18
43802;BMP280;29429;51.074;13.764;2022-12-20T13:59:32;100202.81;;;4.23
43802;BMP280;29429;51.074;13.764;2022-12-20T14:02:11;100196.53;;;4.24
43802;BMP280;29429;51.074;13.764;2022-12-20T14:04:57;100187.63;;;4.25
43802;BMP280;29429;51.074;13.764;2022-12-20T14:07:27;100187.53;;;4.35
43802;BMP280;29429;51.074;13.764;2022-12-20T14:10:00;100198.38;;;4.31
43802;BMP280;29429;51.074;13.764;2022-12-20T14:12:28;100199.69;;;4.27
43802;BMP280;29429;51.074;13.764;2022-12-20T14:15:23;100194.75;;;4.07
43802;BMP280;29429;51.074;13.764;2022-12-20T14:17:50;100185.03;;;4.07
43802;BMP280;29429;51.074;13.764;2022-12-20T14:20:38;100168.06;;;4.10
43802;BMP280;29429;51.074;13.764;2022-12-20T14:23:22;100171.38;;;4.12
43802;BMP280;29429;51.074;13.764;2022-12-20T14:25:59;100180.63;;;4.16
43802;BMP280;29429;51.074;13.764;2022-12-20T14:28:39;100168.47;;;4.23
43802;BMP280;29429;51.074;13.764;2022-12-20T14:36:32;100150.69;;;4.25
43802;BMP280;29429;51.074;13.764;2022-12-20T14:39:00;100157.69;;;4.34
43802;BMP280;29429;51.074;13.764;2022-12-20T14:41:42;100156.38;;;4.38
43802;BMP280;29429;51.074;13.764;2022-12-20T14:44:16;100145.81;;;4.38
43802;BMP280;29429;51.074;13.764;2022-12-20T14:47:13;100134.94;;;4.41
43802;BMP280;29429;51.074;13.764;2022-12-20T14:49:57;100128.47;;;4.36
43802;BMP280;29429;51.074;13.764;2022-12-20T14:52:37;100137.91;;;4.38
43802;BMP280;29429;51.074;13.764;2022-12-20T14:57:47;100122.66;;;4.32
43802;BMP280;29429;51.074;13.764;2022-12-20T15:05:35;100123.72;;;4.39
43802;BMP280;29429;51.074;13.764;2022-12-20T15:15:58;100123.38;;;4.34
43802;BMP280;29429;51.074;13.764;2022-12-20T15:18:26;100129.66;;;4.41
43802;BMP280;29429;51.074;13.764;2022-12-20T15:23:31;100135.97;;;4.48
43802;BMP280;29429;51.074;13.764;2022-12-20T15:26:00;100132.34;;;4.49
43802;BMP280;29429;51.074;13.764;2022-12-20T15:28:27;100143.94;;;4.56
43802;BMP280;29429;51.074;13.764;2022-12-20T15:30:55;100135.66;;;4.51
43802;BMP280;29429;51.074;13.764;2022-12-20T15:33:28;100142.44;;;4.54
43802;BMP280;29429;51.074;13.764;2022-12-20T15:35:56;100133.69;;;4.53
43802;BMP280;29429;51.074;13.764;2022-12-20T15:38:26;100127.13;;;4.57
43802;BMP280;29429;51.074;13.764;2022-12-20T15:41:27;100134.69;;;4.52
43802;BMP280;29429;51.074;13.764;2022-12-20T15:43:59;100136.59;;;4.42
43802;BMP280;29429;51.074;13.764;2022-12-20T15:46:29;100136.59;;;4.42
43802;BMP280;29429;51.074;13.764;2022-12-20T15:48:58;100139.44;;;4.49
43802;BMP280;29429;51.074;13.764;2022-12-20T15:51:32;100145.75;;;4.56
43802;BMP280;29429;51.074;13.764;2022-12-20T15:54:04;100138.97;;;4.53
43802;BMP280;29429;51.074;13.764;2022-12-20T15:56:32;100131.53;;;4.49
43802;BMP280;29429;51.074;13.764;2022-12-20T15:58:59;100141.97;;;4.58
43802;BMP280;29429;51.074;13.764;2022-12-20T16:01:44;100145.97;;;4.62
43802;BMP280;29429;51.074;13.764;2022-12-20T16:04:16;100137.38;;;4.60
43802;BMP280;29429;51.074;13.764;2022-12-20T16:06:46;100139.19;;;4.60
43802;BMP280;29429;51.074;13.764;2022-12-20T16:09:14;100138.03;;;4.62
43802;BMP280;29429;51.074;13.764;2022-12-20T16:11:42;100133.38;;;4.56
43802;BMP280;29429;51.074;13.764;2022-12-20T16:14:19;100126.94;;;4.59
43802;BMP280;29429;51.074;13.764;2022-12-20T16:16:49;100133.38;;;4.56
43802;BMP280;29429;51.074;13.764;2022-12-20T16:19:17;100142.31;;;4.55
43802;BMP280;29429;51.074;13.764;2022-12-20T16:21:50;100139.53;;;4.65
43802;BMP280;29429;51.074;13.764;2022-12-20T16:24:19;100136.72;;;4.66
43802;BMP280;29429;51.074;13.764;2022-12-20T16:26:49;100140.03;;;4.60
43802;BMP280;29429;51.074;13.764;2022-12-20T16:29:17;100143.63;;;4.59
43802;BMP280;29429;51.074;13.764;2022-12-20T16:31:44;100138.31;;;4.51
43802;BMP280;29429;51.074;13.764;2022-12-20T16:34:17;100129.75;;;4.57